Time;durP1;ratioP1;P1;durP2;ratioP2;P2;SDS_P1;SDS_P2;PMS_P1;PMS_P2;Temp;Humidity;BMP_temperature;BMP_pressure;BME280_temperature;BME280_humidity;BME280_pressure;Samples;Min_cycle;Max_cycle;Signal;HPM_P1;HPM_P2
2022/12/24 00:00:57;;;;;;;22.20;3.92;;;10.80;99.90;;;;;;5027170;28;20026;-66
2022/12/24 00:03:23;;;;;;;25.15;4.32;;;10.80;99.90;;;;;;5026917;28;20037;-65
2022/12/24 00:05:49;;;;;;;21.95;4.50;;;10.80;99.90;;;;;;5029080;28;20088;-66
2022/12/24 00:08:14;;;;;;;24.98;4.05;;;10.80;99.90;;;;;;5028261;28;20159;-66
2022/12/24 00:10:40;;;;;;;22.90;3.78;;;10.80;99.90;;;;;;5027328;28;20418;-66
2022/12/24 00:13:05;;;;;;;27.65;4.13;;;10.80;99.90;;;;;;5027041;28;20408;-66
2022/12/24 00:15:31;;;;;;;21.00;3.47;;;10.80;99.90;;;;;;5029050;28;20033;-66
2022/12/24 00:17:56;;;;;;;29.30;5.35;;;10.80;99.90;;;;;;5028569;28;20033;-66
2022/12/24 00:20:23;;;;;;;26.38;4.28;;;10.80;99.90;;;;;;5026128;28;20049;-66
2022/12/24 00:22:49;;;;;;;25.23;4.30;;;10.80;99.90;;;;;;5027851;28;20036;-66
2022/12/24 00:25:14;;;;;;;24.77;5.40;;;10.80;99.90;;;;;;5027243;28;20037;-66
2022/12/24 00:27:40;;;;;;;22.73;4.15;;;10.80;99.90;;;;;;5028989;28;20033;-66
2022/12/24 00:30:07;;;;;;;30.10;4.63;;;10.80;99.90;;;;;;5026596;28;20029;-66
2022/12/24 00:32:33;;;;;;;20.77;4.10;;;10.70;99.90;;;;;;5027524;28;20022;-65
2022/12/24 00:34:58;;;;;;;28.85;4.55;;;10.70;99.90;;;;;;5026616;28;20469;-66
2022/12/24 00:37:24;;;;;;;23.80;3.75;;;10.70;99.90;;;;;;5027440;28;20053;-65
2022/12/24 00:39:49;;;;;;;22.98;4.38;;;10.70;99.90;;;;;;5023578;28;20523;-65
2022/12/24 00:42:15;;;;;;;26.70;5.07;;;10.70;99.90;;;;;;5026358;28;20033;-66
2022/12/24 00:44:40;;;;;;;24.30;5.03;;;10.80;99.90;;;;;;5026162;28;20037;-66
2022/12/24 00:47:06;;;;;;;32.70;5.07;;;10.80;99.90;;;;;;5027350;28;20021;-66
2022/12/24 00:49:31;;;;;;;30.95;4.65;;;10.70;99.90;;;;;;5025931;28;20034;-66
2022/12/24 00:51:57;;;;;;;26.48;3.80;;;10.80;99.90;;;;;;5025914;28;20091;-66
2022/12/24 00:54:22;;;;;;;24.55;4.47;;;10.70;99.90;;;;;;5027424;28;20033;-66
2022/12/24 00:56:48;;;;;;;24.83;4.47;;;10.70;99.90;;;;;;5027958;28;20017;-66
2022/12/24 00:59:13;;;;;;;29.40;4.75;;;10.70;99.90;;;;;;5024786;28;20150;-66
2022/12/24 01:01:45;;;;;;;23.20;4.03;;;10.70;99.90;;;;;;5028817;28;20033;-66
2022/12/24 01:06:55;;;;;;;32.08;5.25;;;10.70;99.90;;;;;;5025342;28;20061;-66
2022/12/24 01:09:20;;;;;;;27.25;4.70;;;10.70;99.90;;;;;;5024970;28;20056;-66
2022/12/24 01:12:04;;;;;;;27.17;5.38;;;10.70;99.90;;;;;;5043102;28;20022;-66
2022/12/24 01:14:30;;;;;;;27.45;4.68;;;10.70;99.90;;;;;;5026737;28;20049;-66
2022/12/24 01:16:55;;;;;;;25.38;4.97;;;10.70;99.90;;;;;;5026743;28;20401;-66
2022/12/24 01:19:21;;;;;;;27.50;5.60;;;10.70;99.90;;;;;;5027999;28;20043;-66
2022/12/24 01:21:46;;;;;;;28.67;4.97;;;10.70;99.90;;;;;;5024630;28;20025;-66
2022/12/24 01:24:15;;;;;;;26.05;4.63;;;10.70;99.90;;;;;;5026144;28;20469;-66
2022/12/24 01:26:42;;;;;;;26.83;6.05;;;10.70;99.90;;;;;;5027036;28;20072;-65
2022/12/24 01:29:08;;;;;;;33.30;4.90;;;10.70;99.90;;;;;;5026699;28;20061;-66
2022/12/24 01:31:33;;;;;;;26.13;4.30;;;10.70;99.90;;;;;;5026608;28;20161;-66
2022/12/24 01:33:59;;;;;;;26.55;4.15;;;10.80;99.90;;;;;;5027058;28;20500;-66
2022/12/24 01:36:24;;;;;;;25.67;5.82;;;10.70;99.90;;;;;;5027110;28;20029;-65
2022/12/24 01:38:50;;;;;;;30.08;6.45;;;10.70;99.90;;;;;;5026267;28;20059;-65
2022/12/24 01:44:38;;;;;;;19.48;4.18;;;10.70;99.90;;;;;;5024935;28;20111;-65
2022/12/24 01:47:12;;;;;;;22.15;4.18;;;10.70;99.90;;;;;;5024396;28;20508;-65
2022/12/24 01:50:00;;;;;;;31.67;5.28;;;10.60;99.90;;;;;;5024649;28;20021;-66
2022/12/24 01:52:30;;;;;;;29.27;4.30;;;10.60;99.90;;;;;;5024219;28;20056;-66
2022/12/24 01:55:04;;;;;;;28.83;4.68;;;10.50;99.90;;;;;;5027140;28;20033;-65
2022/12/24 01:57:36;;;;;;;21.85;3.80;;;10.50;99.90;;;;;;5025987;28;20407;-66
2022/12/24 02:00:07;;;;;;;27.58;4.22;;;10.50;99.90;;;;;;5025835;28;20037;-66
2022/12/24 02:02:33;;;;;;;24.70;3.90;;;10.50;99.90;;;;;;5025938;28;20501;-66
2022/12/24 02:05:38;;;;;;;25.00;4.85;;;10.40;99.90;;;;;;5025583;28;20098;-65
2022/12/24 02:08:04;;;;;;;24.15;4.97;;;10.40;99.90;;;;;;5034636;28;20076;-65
2022/12/24 02:10:30;;;;;;;17.25;3.92;;;10.40;99.90;;;;;;5025986;28;20032;-65
2022/12/24 02:12:58;;;;;;;27.92;4.72;;;10.40;99.90;;;;;;5024686;28;20029;-66
2022/12/24 02:15:25;;;;;;;17.65;4.25;;;10.30;99.90;;;;;;5026682;28;20377;-66
2022/12/24 02:18:14;;;;;;;28.65;4.63;;;10.30;99.90;;;;;;5027896;28;20032;-66
2022/12/24 02:21:13;;;;;;;22.48;3.60;;;10.30;99.90;;;;;;5022882;28;20117;-66
2022/12/24 02:24:03;;;;;;;21.75;3.28;;;10.30;99.90;;;;;;5040554;28;20036;-66
2022/12/24 02:27:00;;;;;;;24.65;4.03;;;10.20;99.90;;;;;;5023828;28;20100;-66
2022/12/24 02:29:44;;;;;;;23.83;4.95;;;10.10;99.90;;;;;;5025092;28;20070;-66
2022/12/24 02:32:33;;;;;;;21.17;3.88;;;10.10;99.90;;;;;;5024290;28;20522;-65
2022/12/24 02:35:12;;;;;;;31.63;4.40;;;10.10;99.90;;;;;;5023975;28;20077;-66
2022/12/24 02:38:13;;;;;;;23.85;4.07;;;10.10;99.90;;;;;;5023332;28;20056;-65
2022/12/24 02:40:45;;;;;;;18.15;4.38;;;10.10;99.90;;;;;;5014959;28;20041;-65
2022/12/24 02:43:18;;;;;;;20.80;3.75;;;10.00;99.90;;;;;;5033824;28;20044;-66
2022/12/24 02:45:48;;;;;;;22.08;3.42;;;10.10;99.90;;;;;;5027929;28;20029;-65
2022/12/24 02:48:16;;;;;;;18.65;3.35;;;10.10;99.90;;;;;;5029890;28;20029;-66
2022/12/24 02:50:57;;;;;;;17.38;3.60;;;10.10;99.90;;;;;;5029274;28;20108;-66
2022/12/24 02:53:23;;;;;;;23.42;3.45;;;10.10;99.90;;;;;;5026739;28;20026;-65
2022/12/24 02:56:12;;;;;;;25.83;4.82;;;10.10;99.90;;;;;;5031182;28;20151;-66
2022/12/24 02:58:45;;;;;;;28.42;4.72;;;10.10;99.90;;;;;;5024807;28;20541;-65
2022/12/24 03:01:24;;;;;;;17.73;3.60;;;10.10;99.90;;;;;;5031305;28;20025;-66
2022/12/24 03:04:08;;;;;;;31.10;4.82;;;10.10;99.90;;;;;;5030114;28;20031;-66
2022/12/24 03:06:55;;;;;;;23.42;4.28;;;10.10;99.90;;;;;;5026656;28;20022;-65
2022/12/24 03:09:29;;;;;;;27.88;5.13;;;10.10;99.90;;;;;;5030792;28;20087;-66
2022/12/24 03:12:19;;;;;;;25.50;5.13;;;10.10;99.90;;;;;;5028296;28;20038;-65
2022/12/24 03:14:47;;;;;;;;;;;10.10;99.90;;;;;;5026906;28;20385;-65
2022/12/24 03:17:13;;;;;;;29.67;5.55;;;10.10;99.90;;;;;;5026650;28;20454;-65
2022/12/24 03:19:38;;;;;;;21.35;4.75;;;10.00;99.90;;;;;;5030828;28;20029;-66
2022/12/24 03:22:08;;;;;;;26.30;4.88;;;10.10;99.90;;;;;;5029647;28;20037;-65
2022/12/24 03:24:34;;;;;;;21.40;5.10;;;10.10;99.90;;;;;;5028408;28;20025;-66
2022/12/24 03:27:00;;;;;;;24.35;4.55;;;10.00;99.90;;;;;;5030245;28;20041;-65
2022/12/24 03:29:26;;;;;;;30.00;5.30;;;10.10;99.90;;;;;;5027936;28;20030;-65
2022/12/24 03:31:59;;;;;;;29.73;5.95;;;10.00;99.90;;;;;;5029461;28;20037;-65
2022/12/24 03:34:25;;;;;;;22.55;4.85;;;10.10;99.90;;;;;;5026700;28;20026;-65
2022/12/24 03:36:51;;;;;;;30.23;6.55;;;10.10;99.90;;;;;;5028889;28;20183;-65
2022/12/24 03:39:16;;;;;;;18.40;4.53;;;10.10;99.90;;;;;;5027418;28;20037;-65
2022/12/24 03:41:42;;;;;;;25.88;5.32;;;10.10;99.90;;;;;;5029382;28;20029;-65
2022/12/24 03:44:08;;;;;;;25.65;6.50;;;10.10;99.90;;;;;;5011277;28;20026;-65
2022/12/24 03:46:33;;;;;;;27.73;5.28;;;10.10;99.90;;;;;;5028269;28;20107;-65
2022/12/24 03:48:59;;;;;;;23.10;5.00;;;10.20;99.90;;;;;;5026036;28;20048;-65
2022/12/24 03:51:25;;;;;;;25.50;5.25;;;10.10;99.90;;;;;;5027454;28;20040;-66
2022/12/24 03:53:57;;;;;;;22.13;4.93;;;10.20;99.90;;;;;;5029310;28;20389;-65
2022/12/24 03:56:23;;;;;;;32.42;7.10;;;10.20;99.90;;;;;;5026027;28;20087;-65
2022/12/24 03:58:49;;;;;;;26.10;5.35;;;10.30;99.90;;;;;;5028459;28;20151;-65
2022/12/24 04:01:16;;;;;;;22.33;5.50;;;10.30;99.90;;;;;;5026132;28;20029;-65
2022/12/24 04:03:42;;;;;;;26.35;6.18;;;10.30;99.90;;;;;;5026549;28;20068;-65
2022/12/24 04:06:10;;;;;;;21.98;5.53;;;10.30;99.90;;;;;;5026051;28;20036;-65
2022/12/24 04:08:36;;;;;;;27.13;5.55;;;10.40;99.90;;;;;;5027204;28;20121;-66
2022/12/24 04:11:07;;;;;;;29.73;5.88;;;10.40;99.90;;;;;;5025733;28;20810;-65
2022/12/24 04:13:33;;;;;;;24.83;5.72;;;10.40;99.90;;;;;;5025116;28;20029;-65
2022/12/24 04:16:07;;;;;;;26.13;5.55;;;10.50;99.90;;;;;;5027168;28;20389;-65
2022/12/24 04:18:33;;;;;;;24.17;5.75;;;10.50;99.90;;;;;;5026354;28;20099;-65
2022/12/24 04:20:59;;;;;;;23.80;4.28;;;10.50;99.90;;;;;;5026763;28;20091;-65
2022/12/24 04:23:24;;;;;;;27.60;5.38;;;10.60;99.90;;;;;;5025902;28;20481;-65
2022/12/24 04:25:50;;;;;;;26.40;4.50;;;10.60;99.90;;;;;;5027232;28;20049;-66
2022/12/24 04:28:16;;;;;;;28.27;4.85;;;10.60;99.90;;;;;;5027364;28;20026;-66
2022/12/24 04:30:42;;;;;;;22.05;5.68;;;10.60;99.90;;;;;;5027129;28;20021;-66
2022/12/24 04:33:08;;;;;;;26.98;4.80;;;10.60;99.90;;;;;;5023539;28;20087;-66
2022/12/24 04:35:37;;;;;;;20.17;5.10;;;10.70;99.90;;;;;;5028386;28;20365;-65
2022/12/24 04:38:02;;;;;;;28.47;5.27;;;10.70;99.90;;;;;;4992495;28;1042440;-65
2022/12/24 04:40:28;;;;;;;24.27;4.85;;;10.70;99.90;;;;;;5027717;28;20341;-65
2022/12/24 04:42:53;;;;;;;27.50;5.43;;;10.70;99.90;;;;;;5025205;28;20026;-65
2022/12/24 04:45:19;;;;;;;28.70;5.45;;;10.70;99.90;;;;;;5028868;28;20096;-65
2022/12/24 04:47:44;;;;;;;27.27;5.30;;;10.70;99.90;;;;;;5027355;28;20101;-65
2022/12/24 04:50:10;;;;;;;25.35;4.68;;;10.80;99.90;;;;;;5027161;28;20065;-65
2022/12/24 04:52:35;;;;;;;30.17;5.47;;;10.80;99.90;;;;;;5026602;28;20021;-65
2022/12/24 04:55:02;;;;;;;37.63;5.50;;;10.80;99.90;;;;;;5025763;28;20040;-65
2022/12/24 04:57:30;;;;;;;26.58;5.18;;;10.80;99.90;;;;;;5027849;28;20033;-65
2022/12/24 04:59:56;;;;;;;21.95;5.38;;;10.80;99.90;;;;;;5027809;28;20028;-66
2022/12/24 05:02:21;;;;;;;26.33;5.50;;;10.90;99.90;;;;;;5025903;28;20033;-65
2022/12/24 05:04:47;;;;;;;30.27;5.45;;;10.90;99.90;;;;;;5025093;28;20025;-65
2022/12/24 05:07:12;;;;;;;30.45;5.57;;;10.90;99.90;;;;;;5026980;28;20088;-65
2022/12/24 05:09:38;;;;;;;20.45;5.75;;;10.90;99.90;;;;;;5027017;28;20025;-66
2022/12/24 05:12:04;;;;;;;26.73;5.70;;;10.90;99.90;;;;;;5024190;28;20104;-65
2022/12/24 05:14:29;;;;;;;37.45;6.25;;;10.90;99.90;;;;;;5028465;28;20052;-65
2022/12/24 05:16:55;;;;;;;30.08;6.45;;;11.00;99.90;;;;;;5026886;28;20494;-65
2022/12/24 05:19:20;;;;;;;25.45;6.20;;;10.90;99.90;;;;;;5027467;28;20029;-65
2022/12/24 05:26:20;;;;;;;24.25;4.70;;;11.00;99.90;;;;;;5026212;28;20108;-65
2022/12/24 05:27:15;;;;;;;29.90;5.32;;;10.90;99.90;;;;;;5028367;28;20035;-65
2022/12/24 05:29:52;;;;;;;20.83;4.88;;;10.90;99.90;;;;;;5025585;28;20477;-66
2022/12/24 05:32:17;;;;;;;26.75;5.55;;;11.00;99.90;;;;;;5026648;28;20125;-65
2022/12/24 05:34:43;;;;;;;34.45;6.07;;;11.00;99.90;;;;;;5025790;28;20127;-65
2022/12/24 05:37:08;;;;;;;24.10;7.30;;;11.00;99.90;;;;;;5027663;28;20448;-65
2022/12/24 05:39:34;;;;;;;27.67;4.85;;;11.00;99.90;;;;;;5025392;28;20539;-65
2022/12/24 05:41:59;;;;;;;25.00;5.03;;;11.00;99.90;;;;;;5026550;28;20026;-65
2022/12/24 05:44:25;;;;;;;26.25;4.68;;;11.00;99.90;;;;;;5025386;28;20052;-66
2022/12/24 05:46:50;;;;;;;27.20;4.88;;;11.00;99.90;;;;;;5027190;28;20033;-66
2022/12/24 05:49:16;;;;;;;21.92;4.70;;;11.00;99.90;;;;;;5025258;28;20029;-65
2022/12/24 05:51:41;;;;;;;29.85;5.30;;;11.00;99.90;;;;;;5026384;28;20030;-66
2022/12/24 05:54:07;;;;;;;22.88;4.82;;;11.00;99.90;;;;;;5025669;28;20083;-66
2022/12/24 05:56:32;;;;;;;26.67;5.63;;;11.00;99.90;;;;;;5025839;28;20028;-66
2022/12/24 05:58:58;;;;;;;30.70;6.65;;;11.00;99.90;;;;;;5025723;28;20030;-66
2022/12/24 06:01:24;;;;;;;31.63;6.20;;;11.00;99.90;;;;;;5025773;28;20126;-66
2022/12/24 06:03:51;;;;;;;31.20;6.72;;;11.00;99.90;;;;;;5025263;28;20104;-66
2022/12/24 06:06:20;;;;;;;30.67;5.97;;;11.00;99.90;;;;;;5026277;28;20045;-66
2022/12/24 06:08:47;;;;;;;24.65;5.88;;;11.00;99.90;;;;;;5025401;28;20107;-65
2022/12/24 06:11:16;;;;;;;27.38;5.43;;;11.00;99.90;;;;;;5025782;28;20025;-65
2022/12/24 06:13:41;;;;;;;29.52;5.97;;;11.00;99.90;;;;;;5027757;28;20026;-66
2022/12/24 06:16:10;;;;;;;23.67;5.53;;;11.00;99.90;;;;;;5026731;28;20033;-65
2022/12/24 06:18:36;;;;;;;23.43;5.77;;;10.90;99.90;;;;;;5024976;28;20501;-65
2022/12/24 06:21:03;;;;;;;28.00;6.68;;;11.00;99.90;;;;;;5025854;28;20036;-65
2022/12/24 06:23:31;;;;;;;23.85;5.70;;;10.90;99.90;;;;;;5024513;28;20083;-65
2022/12/24 06:25:59;;;;;;;29.02;5.57;;;10.90;99.90;;;;;;5027272;28;20051;-65
2022/12/24 06:28:28;;;;;;;25.70;5.97;;;10.90;99.90;;;;;;5020704;28;20053;-65
2022/12/24 06:30:54;;;;;;;31.10;6.50;;;10.90;99.90;;;;;;5030099;28;20121;-65
2022/12/24 06:33:19;;;;;;;27.60;5.70;;;10.90;99.90;;;;;;5013340;28;20018;-65
2022/12/24 06:35:45;;;;;;;34.63;7.53;;;10.90;99.90;;;;;;5015517;28;20387;-65
2022/12/24 06:38:11;;;;;;;32.80;6.40;;;10.90;99.90;;;;;;5020416;28;20501;-66
2022/12/24 06:40:38;;;;;;;26.90;5.55;;;10.90;99.90;;;;;;5030789;28;20138;-65
2022/12/24 06:43:37;;;;;;;;;;;;;;;;;;;;;
2022/12/24 07:29:23;;;;;;;24.95;5.03;;;10.70;99.90;;;;;;4703636;30;20418;-66
2022/12/24 07:31:49;;;;;;;25.88;4.75;;;10.70;99.90;;;;;;4746893;29;20523;-65
2022/12/24 07:34:14;;;;;;;29.52;5.22;;;10.70;99.90;;;;;;4894616;29;20039;-65
2022/12/24 07:36:40;;;;;;;21.15;4.75;;;10.70;99.90;;;;;;4953706;29;20039;-65
2022/12/24 07:39:05;;;;;;;25.50;5.85;;;10.80;99.90;;;;;;4949784;28;20051;-65
2022/12/24 07:41:31;;;;;;;22.17;5.05;;;10.80;99.90;;;;;;4942272;28;20520;-65
2022/12/24 07:43:56;;;;;;;16.95;3.85;;;10.80;99.90;;;;;;4951125;29;20031;-65
2022/12/24 07:46:22;;;;;;;23.70;4.85;;;10.80;99.90;;;;;;4952155;29;20040;-65
2022/12/24 07:48:47;;;;;;;18.63;4.72;;;10.70;99.90;;;;;;4945269;28;20039;-65
2022/12/24 07:51:13;;;;;;;23.67;5.85;;;10.80;99.90;;;;;;4950683;28;20465;-66
2022/12/24 07:53:38;;;;;;;21.50;6.75;;;10.80;99.90;;;;;;4984076;28;20561;-65
2022/12/24 07:56:05;;;;;;;27.88;5.88;;;10.70;99.90;;;;;;4983173;28;20548;-66
2022/12/24 07:58:53;;;;;;;26.67;5.90;;;10.70;99.90;;;;;;4990813;28;20058;-65
2022/12/24 08:08:32;;;;;;;23.20;5.07;;;10.70;99.90;;;;;;4889066;28;20224;-66
2022/12/24 08:21:14;;;;;;;24.45;5.18;;;10.70;99.90;;;;;;4933340;28;20512;-65
2022/12/24 08:23:40;;;;;;;31.17;5.88;;;10.60;99.90;;;;;;5027763;28;20053;-65
2022/12/24 08:26:07;;;;;;;25.48;5.80;;;10.60;99.90;;;;;;5001025;28;20484;-66
2022/12/24 08:28:55;;;;;;;42.85;7.97;;;10.70;99.90;;;;;;5026539;28;20176;-66
2022/12/24 08:53:17;;;;;;;26.70;6.88;;;10.80;99.90;;;;;;5062075;28;20530;-66
2022/12/24 08:55:43;;;;;;;29.63;5.93;;;10.80;99.90;;;;;;5048100;28;20489;-66
2022/12/24 08:58:09;;;;;;;27.60;6.53;;;10.90;99.90;;;;;;5048200;28;20034;-66
2022/12/24 09:00:34;;;;;;;22.67;6.32;;;10.90;99.90;;;;;;5046162;28;20032;-66
2022/12/24 09:03:00;;;;;;;38.75;8.18;;;11.00;99.90;;;;;;5056010;28;20056;-66
2022/12/24 09:05:26;;;;;;;26.15;6.65;;;11.00;99.90;;;;;;5046927;28;20468;-66
2022/12/24 09:07:52;;;;;;;28.58;6.20;;;11.00;99.90;;;;;;5048258;28;20029;-66
2022/12/24 09:10:17;;;;;;;26.83;6.63;;;11.10;99.90;;;;;;5046785;28;20029;-66
2022/12/24 09:12:43;;;;;;;21.30;6.47;;;11.20;99.90;;;;;;5047350;28;20021;-66
2022/12/24 09:15:09;;;;;;;26.70;7.07;;;11.20;99.90;;;;;;5046436;28;20547;-66
2022/12/24 09:17:35;;;;;;;24.75;6.35;;;11.30;99.90;;;;;;5044903;28;20021;-66
2022/12/24 09:20:49;;;;;;;;;;;;;;;;;;;;;
2022/12/24 09:23:10;;;;;;;26.85;6.30;;;11.50;99.90;;;;;;5043428;28;20083;-66
2022/12/24 09:25:40;;;;;;;24.42;6.32;;;11.50;99.90;;;;;;5042162;28;20397;-66
2022/12/24 09:28:06;;;;;;;22.83;6.22;;;11.60;99.90;;;;;;5045096;28;20485;-66
2022/12/24 09:30:31;;;;;;;30.50;6.95;;;11.60;99.90;;;;;;5046600;28;20021;-66
2022/12/24 09:32:57;;;;;;;23.95;6.82;;;11.60;99.90;;;;;;5046520;28;20036;-66
2022/12/24 09:35:22;;;;;;;22.08;5.95;;;11.60;99.90;;;;;;5046327;28;20037;-66
2022/12/24 09:38:01;;;;;;;19.92;5.20;;;11.60;99.90;;;;;;5044438;28;20013;-66
2022/12/24 09:40:34;;;;;;;19.40;4.43;;;11.60;99.90;;;;;;5046470;28;20378;-66
2022/12/24 09:43:33;;;;;;;;;;;;;;;;;;;;;
2022/12/24 09:46:18;;;;;;;22.48;5.80;;;11.70;99.90;;;;;;5044209;28;20029;-66
2022/12/24 09:48:48;;;;;;;25.83;5.68;;;11.70;99.90;;;;;;5045243;28;20017;-66
2022/12/24 09:51:42;;;;;;;27.10;6.18;;;11.80;99.90;;;;;;5044926;28;20041;-65
2022/12/24 09:54:21;;;;;;;24.90;5.57;;;11.90;99.90;;;;;;5044288;28;20107;-66
2022/12/24 09:56:47;;;;;;;27.65;5.57;;;11.90;99.90;;;;;;5045659;28;20443;-66
2022/12/24 09:59:21;;;;;;;27.17;5.53;;;11.90;99.90;;;;;;5046213;28;20487;-66
2022/12/24 10:01:50;;;;;;;19.25;4.85;;;12.00;99.90;;;;;;5047746;28;20057;-66
2022/12/24 10:04:18;;;;;;;24.02;5.07;;;12.10;99.90;;;;;;5036048;28;20037;-66
2022/12/24 10:06:56;;;;;;;21.70;5.18;;;12.10;99.90;;;;;;5034304;28;20541;-66
2022/12/24 10:10:04;;;;;;;20.95;5.07;;;12.10;99.90;;;;;;5034070;28;20030;-66
2022/12/24 10:12:47;;;;;;;25.75;6.50;;;12.10;99.90;;;;;;5033001;28;20030;-65
2022/12/24 10:15:25;;;;;;;25.85;6.18;;;12.00;99.90;;;;;;5033731;28;20291;-66
2022/12/24 10:18:27;;;;;;;22.55;5.38;;;12.00;99.90;;;;;;5034128;28;20025;-66
2022/12/24 10:21:10;;;;;;;22.80;4.90;;;12.00;99.90;;;;;;5038869;28;20018;-66
2022/12/24 10:23:52;;;;;;;29.80;5.30;;;12.00;99.90;;;;;;5021089;28;20021;-66
2022/12/24 10:29:45;;;;;;;26.77;4.65;;;12.10;99.90;;;;;;5032474;28;20096;-66
2022/12/24 10:32:16;;;;;;;;;;;12.30;99.90;;;;;;5034341;28;20473;-66
2022/12/24 10:34:56;;;;;;;23.30;5.20;;;12.40;99.90;;;;;;5033514;28;20387;-66
2022/12/24 10:37:27;;;;;;;19.52;5.10;;;12.50;99.90;;;;;;5033493;28;20029;-66
2022/12/24 10:39:53;;;;;;;25.67;5.15;;;12.50;99.90;;;;;;5033746;28;20021;-66
2022/12/24 10:42:22;;;;;;;27.08;5.22;;;12.50;99.90;;;;;;5033045;28;20463;-66
2022/12/24 10:44:50;;;;;;;25.45;5.15;;;12.50;99.90;;;;;;5033373;28;20061;-66
2022/12/24 10:47:36;;;;;;;21.65;5.10;;;12.50;99.90;;;;;;5029881;28;20037;-66
2022/12/24 10:50:12;;;;;;;31.13;5.95;;;12.50;99.90;;;;;;5025815;28;20065;-68
2022/12/24 10:52:40;;;;;;;24.42;6.78;;;12.50;99.90;;;;;;5028478;28;20045;-66
2022/12/24 10:55:10;;;;;;;23.20;5.30;;;12.90;99.90;;;;;;5030155;28;20033;-66
2022/12/24 10:57:36;;;;;;;15.27;4.47;;;13.30;99.90;;;;;;5031057;28;20022;-66
2022/12/24 11:00:05;;;;;;;23.40;4.43;;;13.90;99.90;;;;;;5029318;28;20054;-66
2022/12/24 11:02:36;;;;;;;18.38;5.22;;;14.40;99.90;;;;;;5034288;28;20017;-66
2022/12/24 11:05:06;;;;;;;22.50;3.90;;;14.50;99.90;;;;;;5032612;28;20021;-66
2022/12/24 11:07:32;;;;;;;16.45;3.63;;;14.50;99.90;;;;;;5032578;28;20026;-66
2022/12/24 11:10:00;;;;;;;17.80;4.40;;;14.40;99.90;;;;;;5029561;28;20385;-66
2022/12/24 11:12:31;;;;;;;15.40;3.53;;;14.40;99.90;;;;;;5033856;28;20459;-66
2022/12/24 11:15:16;;;;;;;19.75;4.13;;;14.40;99.90;;;;;;5029312;28;20480;-66
2022/12/24 11:17:51;;;;;;;17.05;3.90;;;14.60;99.90;;;;;;5030819;28;20448;-66
2022/12/24 11:20:20;;;;;;;21.73;4.22;;;14.70;99.90;;;;;;5032546;28;20056;-66
2022/12/24 11:22:48;;;;;;;22.13;4.43;;;15.00;99.90;;;;;;5032280;28;20087;-66
2022/12/24 11:25:24;;;;;;;18.73;4.13;;;14.90;99.90;;;;;;5029401;28;20025;-66
2022/12/24 11:27:50;;;;;;;20.52;5.13;;;14.70;99.90;;;;;;5029161;28;20022;-66
2022/12/24 11:30:15;;;;;;;18.70;4.47;;;14.50;99.90;;;;;;5033611;28;20467;-66
2022/12/24 11:32:42;;;;;;;23.10;4.18;;;14.30;99.90;;;;;;5034155;28;20018;-66
2022/12/24 11:35:22;;;;;;;18.05;3.85;;;14.10;99.90;;;;;;5039211;28;20104;-66
2022/12/24 11:37:48;;;;;;;17.42;3.72;;;13.90;99.90;;;;;;5039526;28;20100;-66
2022/12/24 11:40:20;;;;;;;11.50;3.75;;;13.70;99.90;;;;;;5035868;28;20021;-66
2022/12/24 11:42:47;;;;;;;17.70;3.75;;;13.60;99.90;;;;;;5034904;28;20036;-66
2022/12/24 11:45:23;;;;;;;20.05;4.13;;;13.60;99.90;;;;;;5036933;28;20532;-66
2022/12/24 11:47:49;;;;;;;20.02;4.22;;;13.60;99.90;;;;;;5031585;28;20033;-66
2022/12/24 11:50:19;;;;;;;20.70;5.00;;;13.90;99.90;;;;;;5033423;28;20481;-66
2022/12/24 11:52:48;;;;;;;17.98;5.93;;;14.10;99.90;;;;;;5037372;28;20468;-66
2022/12/24 11:55:34;;;;;;;19.33;4.30;;;14.40;99.90;;;;;;5040274;28;20020;-66
2022/12/24 11:58:14;;;;;;;20.23;4.22;;;14.60;99.90;;;;;;5040709;28;20090;-66
2022/12/24 12:00:41;;;;;;;15.55;3.67;;;14.90;99.90;;;;;;5028259;28;20025;-66
2022/12/24 12:03:24;;;;;;;22.33;5.20;;;14.90;99.90;;;;;;5045788;28;20037;-66
2022/12/24 12:05:52;;;;;;;18.95;4.63;;;14.80;99.90;;;;;;5031374;28;20021;-66
2022/12/24 12:08:19;;;;;;;18.23;4.32;;;14.50;99.90;;;;;;5046124;28;20028;-66
2022/12/24 12:10:54;;;;;;;15.05;3.95;;;14.40;99.90;;;;;;5033176;28;20025;-66
2022/12/24 12:13:31;;;;;;;13.55;3.78;;;14.40;99.90;;;;;;5030843;28;20400;-66
2022/12/24 12:16:18;;;;;;;13.70;3.83;;;14.70;99.90;;;;;;5027027;28;20029;-66
2022/12/24 12:18:51;;;;;;;17.52;3.88;;;15.50;99.90;;;;;;5027228;28;20040;-67
2022/12/24 12:21:24;;;;;;;12.48;3.38;;;16.30;99.90;;;;;;5027626;28;20029;-66
2022/12/24 12:23:54;;;;;;;18.05;3.45;;;16.40;99.10;;;;;;5030119;28;20044;-66
2022/12/24 12:26:26;;;;;;;13.18;3.60;;;16.10;98.60;;;;;;5030877;28;20020;-66
2022/12/24 12:29:03;;;;;;;20.30;3.90;;;15.80;98.70;;;;;;5029346;28;20056;-67
2022/12/24 12:31:38;;;;;;;14.30;3.63;;;15.60;98.90;;;;;;5034937;28;20481;-66
2022/12/24 12:34:28;;;;;;;15.68;3.40;;;15.60;99.30;;;;;;5032354;28;20037;-66
2022/12/24 12:37:02;;;;;;;16.80;3.13;;;16.00;99.30;;;;;;5027692;28;20036;-66
2022/12/24 12:39:30;;;;;;;12.25;3.25;;;16.10;98.70;;;;;;5030948;28;20010;-66
2022/12/24 12:42:35;;;;;;;19.90;4.10;;;16.10;98.40;;;;;;5029792;28;20044;-66
2022/12/24 12:45:36;;;;;;;20.95;4.05;;;16.10;97.80;;;;;;5029119;28;20033;-66
2022/12/24 12:48:32;;;;;;;17.02;3.58;;;15.80;97.60;;;;;;5028361;28;20108;-66
2022/12/24 12:51:03;;;;;;;18.58;3.65;;;15.90;97.60;;;;;;5023122;28;21232;-66
2022/12/24 12:53:56;;;;;;;11.45;2.85;;;15.90;97.20;;;;;;5029980;28;20033;-66
2022/12/24 12:56:30;;;;;;;15.02;3.78;;;15.80;97.20;;;;;;5030809;28;20025;-66
2022/12/24 12:59:16;;;;;;;10.43;2.67;;;15.80;97.40;;;;;;5035868;28;20530;-66
2022/12/24 13:02:03;;;;;;;12.98;3.70;;;16.60;97.50;;;;;;5032582;28;20034;-66
2022/12/24 13:04:47;;;;;;;16.50;3.35;;;17.70;96.50;;;;;;5035709;28;20097;-66
2022/12/24 13:07:27;;;;;;;11.05;2.85;;;18.40;94.40;;;;;;5035870;28;20051;-66
2022/12/24 13:10:11;;;;;;;12.85;3.33;;;19.20;93.40;;;;;;5032736;28;20029;-66
2022/12/24 13:12:58;;;;;;;13.82;3.40;;;20.20;90.20;;;;;;5026893;28;20025;-67
2022/12/24 13:15:45;;;;;;;13.75;2.60;;;21.00;85.10;;;;;;5036754;28;20020;-66
2022/12/24 13:19:03;;;;;;;11.25;3.28;;;21.60;81.00;;;;;;5033769;28;20025;-66
2022/12/24 13:21:30;;;;;;;10.20;3.08;;;22.30;76.10;;;;;;5047470;28;20160;-66
2022/12/24 13:24:17;;;;;;;11.73;2.78;;;22.30;71.90;;;;;;5031442;28;20072;-67
2022/12/24 13:26:59;;;;;;;12.75;3.38;;;21.80;71.00;;;;;;5032521;28;20025;-66
2022/12/24 13:29:34;;;;;;;13.68;3.90;;;21.00;71.80;;;;;;5042382;28;20029;-66
2022/12/24 13:32:38;;;;;;;14.05;3.50;;;20.20;73.00;;;;;;5038834;28;20029;-66
2022/12/24 13:35:27;;;;;;;15.65;3.90;;;19.30;75.00;;;;;;5026674;28;20025;-66
2022/12/24 13:37:53;;;;;;;;;;;18.60;76.90;;;;;;5039440;28;20025;-67
2022/12/24 13:40:27;;;;;;;13.57;2.97;;;17.90;78.30;;;;;;5039773;28;19955;-66
2022/12/24 13:42:59;;;;;;;13.73;3.25;;;17.80;80.60;;;;;;5031376;28;20026;-66
2022/12/24 13:45:30;;;;;;;18.20;4.18;;;17.80;81.20;;;;;;5032850;28;20420;-66
2022/12/24 13:48:16;;;;;;;11.25;3.10;;;17.70;81.20;;;;;;5032566;28;20100;-66
2022/12/24 13:50:46;;;;;;;10.30;2.47;;;17.50;82.10;;;;;;5031528;28;20091;-67
2022/12/24 13:53:23;;;;;;;14.85;3.17;;;17.50;83.10;;;;;;5031758;28;20497;-66
2022/12/24 13:55:55;;;;;;;10.18;3.08;;;17.70;83.70;;;;;;5035168;28;20033;-66
2022/12/24 13:58:24;;;;;;;12.50;2.15;;;18.30;83.20;;;;;;5035667;28;20031;-66
2022/12/24 14:00:57;;;;;;;10.93;2.72;;;19.00;81.60;;;;;;5034671;28;20020;-66
2022/12/24 14:03:40;;;;;;;10.75;2.72;;;19.50;80.40;;;;;;5032544;28;20098;-66
2022/12/24 14:06:25;;;;;;;9.27;2.58;;;19.70;79.00;;;;;;5034614;28;20033;-66
2022/12/24 14:08:54;;;;;;;13.98;3.55;;;19.80;78.50;;;;;;5035061;28;20508;-66
2022/12/24 14:11:22;;;;;;;13.13;3.13;;;19.70;78.30;;;;;;5038258;28;20055;-66
2022/12/24 14:13:47;;;;;;;16.30;3.53;;;19.50;78.30;;;;;;5039362;28;20029;-66
2022/12/24 14:16:42;;;;;;;14.68;2.92;;;19.20;78.70;;;;;;5037405;28;20033;-66
2022/12/24 14:19:19;;;;;;;15.70;4.00;;;19.10;78.70;;;;;;5031470;28;20018;-66
2022/12/24 14:22:00;;;;;;;14.00;4.05;;;19.00;78.60;;;;;;5032924;28;20473;-66
2022/12/24 14:24:34;;;;;;;12.52;3.08;;;19.00;78.70;;;;;;5036729;28;20029;-66
2022/12/24 14:27:15;;;;;;;9.52;2.38;;;19.10;78.30;;;;;;5037095;28;20029;-66
2022/12/24 14:30:00;;;;;;;10.65;2.60;;;19.00;78.40;;;;;;5039406;28;20018;-67
2022/12/24 14:32:36;;;;;;;13.70;3.45;;;18.80;78.40;;;;;;5034925;28;20091;-66
2022/12/24 14:35:05;;;;;;;11.13;2.78;;;18.40;78.70;;;;;;5033360;28;20039;-66
2022/12/24 14:37:31;;;;;;;13.02;3.13;;;18.10;79.70;;;;;;5033471;28;20079;-66
2022/12/24 14:39:56;;;;;;;16.48;3.70;;;17.60;80.50;;;;;;5033283;28;20025;-66